sensor_id;sensor_type;location;lat;lon;timestamp;P1;durP1;ratioP1;P2;durP2;ratioP2
56824;SDS011;42705;50.326;18.772;2024-02-28T00:04:15;111.40;;;57.10;;
56824;SDS011;42705;50.326;18.772;2024-02-28T00:09:37;116.70;;;57.80;;
56824;SDS011;42705;50.326;18.772;2024-02-28T00:14:59;140.50;;;70.50;;
56824;SDS011;42705;50.326;18.772;2024-02-28T00:20:21;117.70;;;60.70;;
56824;SDS011;42705;50.326;18.772;2024-02-28T00:25:43;109.70;;;59.60;;
56824;SDS011;42705;50.326;18.772;2024-02-28T00:31:05;105.20;;;54.10;;
56824;SDS011;42705;50.326;18.772;2024-02-28T00:36:27;98.20;;;52.00;;
56824;SDS011;42705;50.326;18.772;2024-02-28T00:41:49;99.20;;;52.20;;
56824;SDS011;42705;50.326;18.772;2024-02-28T00:47:11;96.90;;;51.60;;
56824;SDS011;42705;50.326;18.772;2024-02-28T00:52:33;100.20;;;53.20;;
56824;SDS011;42705;50.326;18.772;2024-02-28T00:57:55;94.10;;;50.00;;
56824;SDS011;42705;50.326;18.772;2024-02-28T01:03:17;95.50;;;52.00;;
56824;SDS011;42705;50.326;18.772;2024-02-28T01:14:02;100.10;;;49.40;;
56824;SDS011;42705;50.326;18.772;2024-02-28T01:19:24;103.20;;;53.10;;
56824;SDS011;42705;50.326;18.772;2024-02-28T01:24:46;96.40;;;50.10;;
56824;SDS011;42705;50.326;18.772;2024-02-28T01:30:08;87.60;;;45.40;;
56824;SDS011;42705;50.326;18.772;2024-02-28T01:35:30;88.30;;;49.80;;
56824;SDS011;42705;50.326;18.772;2024-02-28T01:40:52;96.30;;;50.80;;
56824;SDS011;42705;50.326;18.772;2024-02-28T01:46:20;90.10;;;50.40;;
56824;SDS011;42705;50.326;18.772;2024-02-28T01:51:45;94.40;;;50.40;;
56824;SDS011;42705;50.326;18.772;2024-02-28T01:57:08;92.10;;;50.00;;
56824;SDS011;42705;50.326;18.772;2024-02-28T02:02:31;87.10;;;49.10;;
56824;SDS011;42705;50.326;18.772;2024-02-28T02:07:53;95.20;;;49.20;;
56824;SDS011;42705;50.326;18.772;2024-02-28T02:13:16;93.40;;;50.10;;
56824;SDS011;42705;50.326;18.772;2024-02-28T02:18:38;97.90;;;50.30;;
56824;SDS011;42705;50.326;18.772;2024-02-28T02:24:01;112.10;;;54.00;;
56824;SDS011;42705;50.326;18.772;2024-02-28T02:29:23;106.20;;;55.20;;
56824;SDS011;42705;50.326;18.772;2024-02-28T02:34:46;110.40;;;58.10;;
56824;SDS011;42705;50.326;18.772;2024-02-28T02:40:08;109.20;;;58.20;;
56824;SDS011;42705;50.326;18.772;2024-02-28T02:45:31;109.20;;;58.00;;
56824;SDS011;42705;50.326;18.772;2024-02-28T02:50:53;118.10;;;61.70;;
56824;SDS011;42705;50.326;18.772;2024-02-28T02:56:15;114.30;;;60.60;;
56824;SDS011;42705;50.326;18.772;2024-02-28T03:01:37;115.70;;;59.80;;
56824;SDS011;42705;50.326;18.772;2024-02-28T03:06:59;108.60;;;56.80;;
56824;SDS011;42705;50.326;18.772;2024-02-28T03:12:21;109.70;;;56.00;;
56824;SDS011;42705;50.326;18.772;2024-02-28T03:17:43;108.40;;;60.30;;
56824;SDS011;42705;50.326;18.772;2024-02-28T03:23:05;112.70;;;59.80;;
56824;SDS011;42705;50.326;18.772;2024-02-28T03:28:27;110.80;;;59.50;;
56824;SDS011;42705;50.326;18.772;2024-02-28T03:33:49;112.10;;;58.90;;
56824;SDS011;42705;50.326;18.772;2024-02-28T03:39:11;112.10;;;59.10;;
56824;SDS011;42705;50.326;18.772;2024-02-28T03:44:33;115.90;;;62.30;;
56824;SDS011;42705;50.326;18.772;2024-02-28T03:49:55;108.30;;;57.80;;
56824;SDS011;42705;50.326;18.772;2024-02-28T03:55:19;111.60;;;57.90;;
56824;SDS011;42705;50.326;18.772;2024-02-28T04:00:41;107.50;;;57.00;;
56824;SDS011;42705;50.326;18.772;2024-02-28T04:06:06;100.30;;;54.00;;
56824;SDS011;42705;50.326;18.772;2024-02-28T04:11:28;107.20;;;54.80;;
56824;SDS011;42705;50.326;18.772;2024-02-28T04:16:50;111.10;;;57.10;;
56824;SDS011;42705;50.326;18.772;2024-02-28T04:22:12;103.60;;;53.70;;
56824;SDS011;42705;50.326;18.772;2024-02-28T04:27:35;110.40;;;56.30;;
56824;SDS011;42705;50.326;18.772;2024-02-28T04:32:57;103.80;;;55.40;;
56824;SDS011;42705;50.326;18.772;2024-02-28T04:38:19;106.70;;;51.70;;
56824;SDS011;42705;50.326;18.772;2024-02-28T04:43:41;99.30;;;52.10;;
56824;SDS011;42705;50.326;18.772;2024-02-28T04:49:03;106.70;;;52.70;;
56824;SDS011;42705;50.326;18.772;2024-02-28T04:54:26;99.90;;;53.60;;
56824;SDS011;42705;50.326;18.772;2024-02-28T04:59:48;112.70;;;60.20;;
56824;SDS011;42705;50.326;18.772;2024-02-28T05:05:10;113.10;;;56.60;;
56824;SDS011;42705;50.326;18.772;2024-02-28T05:10:31;90.00;;;48.80;;
56824;SDS011;42705;50.326;18.772;2024-02-28T05:15:55;94.50;;;51.20;;
56824;SDS011;42705;50.326;18.772;2024-02-28T05:21:18;95.80;;;49.00;;
56824;SDS011;42705;50.326;18.772;2024-02-28T05:26:40;94.70;;;49.70;;
56824;SDS011;42705;50.326;18.772;2024-02-28T05:32:03;91.30;;;49.50;;
56824;SDS011;42705;50.326;18.772;2024-02-28T05:42:47;100.60;;;47.80;;
56824;SDS011;42705;50.326;18.772;2024-02-28T05:48:09;100.80;;;50.60;;
56824;SDS011;42705;50.326;18.772;2024-02-28T06:07:21;109.40;;;50.00;;
56824;SDS011;42705;50.326;18.772;2024-02-28T06:12:45;112.10;;;48.70;;
56824;SDS011;42705;50.326;18.772;2024-02-28T06:18:07;108.00;;;48.30;;
56824;SDS011;42705;50.326;18.772;2024-02-28T06:23:28;105.60;;;47.70;;
56824;SDS011;42705;50.326;18.772;2024-02-28T06:28:50;110.50;;;49.70;;
56824;SDS011;42705;50.326;18.772;2024-02-28T06:34:13;112.00;;;49.30;;
56824;SDS011;42705;50.326;18.772;2024-02-28T06:39:34;109.40;;;46.90;;
56824;SDS011;42705;50.326;18.772;2024-02-28T06:44:56;106.10;;;46.90;;
56824;SDS011;42705;50.326;18.772;2024-02-28T06:50:17;111.30;;;47.70;;
56824;SDS011;42705;50.326;18.772;2024-02-28T06:55:39;113.50;;;47.70;;
56824;SDS011;42705;50.326;18.772;2024-02-28T07:01:01;109.10;;;47.50;;
56824;SDS011;42705;50.326;18.772;2024-02-28T07:06:22;114.30;;;51.10;;
56824;SDS011;42705;50.326;18.772;2024-02-28T07:11:44;111.70;;;47.20;;
56824;SDS011;42705;50.326;18.772;2024-02-28T07:17:05;120.10;;;47.80;;
56824;SDS011;42705;50.326;18.772;2024-02-28T07:22:28;120.60;;;49.60;;
56824;SDS011;42705;50.326;18.772;2024-02-28T07:27:49;116.40;;;47.70;;
56824;SDS011;42705;50.326;18.772;2024-02-28T07:33:11;123.10;;;50.60;;
56824;SDS011;42705;50.326;18.772;2024-02-28T07:38:33;120.10;;;48.30;;
56824;SDS011;42705;50.326;18.772;2024-02-28T07:43:54;114.20;;;48.60;;
56824;SDS011;42705;50.326;18.772;2024-02-28T07:49:16;109.60;;;47.50;;
56824;SDS011;42705;50.326;18.772;2024-02-28T07:54:37;113.30;;;48.20;;
56824;SDS011;42705;50.326;18.772;2024-02-28T07:59:59;111.60;;;47.30;;
56824;SDS011;42705;50.326;18.772;2024-02-28T08:05:22;106.30;;;46.30;;
56824;SDS011;42705;50.326;18.772;2024-02-28T08:10:44;100.60;;;41.50;;
56824;SDS011;42705;50.326;18.772;2024-02-28T08:16:07;107.90;;;44.90;;
56824;SDS011;42705;50.326;18.772;2024-02-28T08:21:30;114.80;;;46.80;;
56824;SDS011;42705;50.326;18.772;2024-02-28T08:26:52;116.70;;;47.40;;
56824;SDS011;42705;50.326;18.772;2024-02-28T08:32:14;119.10;;;47.80;;
56824;SDS011;42705;50.326;18.772;2024-02-28T08:37:38;119.90;;;46.30;;
56824;SDS011;42705;50.326;18.772;2024-02-28T08:43:00;117.30;;;49.60;;
56824;SDS011;42705;50.326;18.772;2024-02-28T08:48:23;122.90;;;50.50;;
56824;SDS011;42705;50.326;18.772;2024-02-28T08:53:44;109.10;;;49.50;;
56824;SDS011;42705;50.326;18.772;2024-02-28T08:59:06;109.30;;;47.80;;
56824;SDS011;42705;50.326;18.772;2024-02-28T09:04:28;119.70;;;49.90;;
56824;SDS011;42705;50.326;18.772;2024-02-28T09:09:50;112.90;;;49.30;;
56824;SDS011;42705;50.326;18.772;2024-02-28T09:15:13;114.00;;;48.40;;
56824;SDS011;42705;50.326;18.772;2024-02-28T09:20:35;103.10;;;47.90;;
56824;SDS011;42705;50.326;18.772;2024-02-28T09:25:57;107.50;;;47.90;;
56824;SDS011;42705;50.326;18.772;2024-02-28T09:31:36;118.70;;;49.90;;
56824;SDS011;42705;50.326;18.772;2024-02-28T09:36:58;118.50;;;51.10;;
56824;SDS011;42705;50.326;18.772;2024-02-28T09:42:20;118.20;;;51.70;;
56824;SDS011;42705;50.326;18.772;2024-02-28T09:47:42;112.70;;;50.20;;
56824;SDS011;42705;50.326;18.772;2024-02-28T09:53:04;128.50;;;53.70;;
56824;SDS011;42705;50.326;18.772;2024-02-28T09:58:26;144.30;;;56.00;;
56824;SDS011;42705;50.326;18.772;2024-02-28T10:03:50;132.20;;;55.50;;
56824;SDS011;42705;50.326;18.772;2024-02-28T10:09:14;128.90;;;52.90;;
56824;SDS011;42705;50.326;18.772;2024-02-28T10:14:36;125.20;;;52.50;;
56824;SDS011;42705;50.326;18.772;2024-02-28T10:19:59;120.00;;;49.80;;
56824;SDS011;42705;50.326;18.772;2024-02-28T10:25:22;114.60;;;48.30;;
56824;SDS011;42705;50.326;18.772;2024-02-28T10:30:45;117.60;;;51.80;;
56824;SDS011;42705;50.326;18.772;2024-02-28T10:36:08;122.40;;;51.90;;
56824;SDS011;42705;50.326;18.772;2024-02-28T10:41:30;113.70;;;49.60;;
56824;SDS011;42705;50.326;18.772;2024-02-28T10:46:54;110.40;;;48.70;;
56824;SDS011;42705;50.326;18.772;2024-02-28T10:52:17;116.20;;;49.20;;
56824;SDS011;42705;50.326;18.772;2024-02-28T10:57:43;105.10;;;45.70;;
56824;SDS011;42705;50.326;18.772;2024-02-28T11:03:15;113.20;;;48.40;;
56824;SDS011;42705;50.326;18.772;2024-02-28T11:08:38;115.80;;;48.70;;
56824;SDS011;42705;50.326;18.772;2024-02-28T11:14:00;109.20;;;45.80;;
56824;SDS011;42705;50.326;18.772;2024-02-28T11:19:22;111.20;;;46.50;;
56824;SDS011;42705;50.326;18.772;2024-02-28T11:24:44;110.60;;;46.10;;
56824;SDS011;42705;50.326;18.772;2024-02-28T11:30:06;98.80;;;43.40;;
56824;SDS011;42705;50.326;18.772;2024-02-28T11:35:29;90.30;;;40.90;;
56824;SDS011;42705;50.326;18.772;2024-02-28T11:40:51;89.80;;;39.50;;
56824;SDS011;42705;50.326;18.772;2024-02-28T11:46:15;93.40;;;41.00;;
56824;SDS011;42705;50.326;18.772;2024-02-28T11:51:40;89.20;;;38.60;;
56824;SDS011;42705;50.326;18.772;2024-02-28T11:57:03;80.40;;;37.20;;
56824;SDS011;42705;50.326;18.772;2024-02-28T12:02:25;85.80;;;40.10;;
56824;SDS011;42705;50.326;18.772;2024-02-28T12:07:48;82.40;;;38.00;;
56824;SDS011;42705;50.326;18.772;2024-02-28T12:13:10;82.70;;;39.30;;
56824;SDS011;42705;50.326;18.772;2024-02-28T12:18:34;90.00;;;40.50;;
56824;SDS011;42705;50.326;18.772;2024-02-28T12:23:56;97.60;;;43.40;;
56824;SDS011;42705;50.326;18.772;2024-02-28T12:29:19;101.30;;;41.80;;
56824;SDS011;42705;50.326;18.772;2024-02-28T12:34:41;93.70;;;41.20;;
56824;SDS011;42705;50.326;18.772;2024-02-28T12:40:03;95.80;;;43.00;;
56824;SDS011;42705;50.326;18.772;2024-02-28T12:45:27;87.80;;;38.60;;
56824;SDS011;42705;50.326;18.772;2024-02-28T12:50:49;88.30;;;40.40;;
56824;SDS011;42705;50.326;18.772;2024-02-28T12:56:11;88.60;;;38.70;;
56824;SDS011;42705;50.326;18.772;2024-02-28T13:01:33;86.80;;;38.90;;
56824;SDS011;42705;50.326;18.772;2024-02-28T13:06:55;71.90;;;33.00;;
56824;SDS011;42705;50.326;18.772;2024-02-28T13:12:17;74.70;;;34.30;;
56824;SDS011;42705;50.326;18.772;2024-02-28T13:17:39;81.40;;;35.10;;
56824;SDS011;42705;50.326;18.772;2024-02-28T13:23:03;74.70;;;34.50;;
56824;SDS011;42705;50.326;18.772;2024-02-28T13:28:25;76.90;;;33.40;;
56824;SDS011;42705;50.326;18.772;2024-02-28T13:33:52;86.00;;;36.50;;
56824;SDS011;42705;50.326;18.772;2024-02-28T13:39:14;83.20;;;34.50;;
56824;SDS011;42705;50.326;18.772;2024-02-28T13:44:37;85.70;;;38.80;;
56824;SDS011;42705;50.326;18.772;2024-02-28T13:50:00;85.80;;;40.60;;
56824;SDS011;42705;50.326;18.772;2024-02-28T13:55:23;90.30;;;39.90;;
56824;SDS011;42705;50.326;18.772;2024-02-28T14:00:45;105.80;;;41.70;;
56824;SDS011;42705;50.326;18.772;2024-02-28T14:06:08;87.70;;;39.80;;
56824;SDS011;42705;50.326;18.772;2024-02-28T14:11:30;95.20;;;42.50;;
56824;SDS011;42705;50.326;18.772;2024-02-28T14:16:52;89.60;;;38.70;;
56824;SDS011;42705;50.326;18.772;2024-02-28T14:22:14;82.80;;;38.90;;
56824;SDS011;42705;50.326;18.772;2024-02-28T14:27:36;82.50;;;37.70;;
56824;SDS011;42705;50.326;18.772;2024-02-28T14:32:58;76.30;;;34.00;;
56824;SDS011;42705;50.326;18.772;2024-02-28T14:38:20;68.80;;;33.10;;
56824;SDS011;42705;50.326;18.772;2024-02-28T14:43:42;64.50;;;29.80;;
56824;SDS011;42705;50.326;18.772;2024-02-28T14:49:04;62.70;;;28.40;;
56824;SDS011;42705;50.326;18.772;2024-02-28T14:54:26;62.40;;;26.60;;
56824;SDS011;42705;50.326;18.772;2024-02-28T14:59:48;62.40;;;27.60;;
56824;SDS011;42705;50.326;18.772;2024-02-28T15:05:13;59.30;;;24.90;;
56824;SDS011;42705;50.326;18.772;2024-02-28T15:10:36;62.80;;;28.30;;
56824;SDS011;42705;50.326;18.772;2024-02-28T15:15:58;61.90;;;29.70;;
56824;SDS011;42705;50.326;18.772;2024-02-28T15:21:20;63.70;;;27.60;;
56824;SDS011;42705;50.326;18.772;2024-02-28T15:26:42;69.90;;;30.90;;
56824;SDS011;42705;50.326;18.772;2024-02-28T15:32:05;63.20;;;27.40;;
56824;SDS011;42705;50.326;18.772;2024-02-28T15:37:27;61.60;;;25.00;;
56824;SDS011;42705;50.326;18.772;2024-02-28T15:42:49;61.50;;;24.50;;
56824;SDS011;42705;50.326;18.772;2024-02-28T15:48:11;56.00;;;23.10;;
56824;SDS011;42705;50.326;18.772;2024-02-28T15:53:32;55.40;;;23.30;;
56824;SDS011;42705;50.326;18.772;2024-02-28T15:58:56;56.00;;;23.30;;
56824;SDS011;42705;50.326;18.772;2024-02-28T16:04:18;57.80;;;24.70;;
56824;SDS011;42705;50.326;18.772;2024-02-28T16:09:47;57.40;;;23.30;;
56824;SDS011;42705;50.326;18.772;2024-02-28T16:15:12;52.10;;;22.80;;
56824;SDS011;42705;50.326;18.772;2024-02-28T16:20:34;49.70;;;22.20;;
56824;SDS011;42705;50.326;18.772;2024-02-28T16:25:57;55.60;;;24.80;;
56824;SDS011;42705;50.326;18.772;2024-02-28T16:31:20;43.50;;;20.70;;
56824;SDS011;42705;50.326;18.772;2024-02-28T16:36:42;47.40;;;22.20;;
56824;SDS011;42705;50.326;18.772;2024-02-28T16:42:04;41.50;;;19.80;;
56824;SDS011;42705;50.326;18.772;2024-02-28T16:47:26;42.90;;;19.10;;
56824;SDS011;42705;50.326;18.772;2024-02-28T16:52:48;39.40;;;19.10;;
56824;SDS011;42705;50.326;18.772;2024-02-28T16:58:10;38.20;;;19.00;;
56824;SDS011;42705;50.326;18.772;2024-02-28T17:03:32;57.80;;;26.10;;
56824;SDS011;42705;50.326;18.772;2024-02-28T17:08:54;37.80;;;20.40;;
56824;SDS011;42705;50.326;18.772;2024-02-28T17:14:16;40.80;;;19.90;;
56824;SDS011;42705;50.326;18.772;2024-02-28T17:19:39;45.30;;;21.00;;
56824;SDS011;42705;50.326;18.772;2024-02-28T17:25:01;41.40;;;18.80;;
56824;SDS011;42705;50.326;18.772;2024-02-28T17:30:23;42.80;;;20.90;;
56824;SDS011;42705;50.326;18.772;2024-02-28T17:35:45;38.60;;;18.60;;
56824;SDS011;42705;50.326;18.772;2024-02-28T17:41:07;38.30;;;17.70;;
56824;SDS011;42705;50.326;18.772;2024-02-28T17:46:30;39.40;;;18.60;;
56824;SDS011;42705;50.326;18.772;2024-02-28T17:51:52;38.00;;;19.10;;
56824;SDS011;42705;50.326;18.772;2024-02-28T18:02:40;41.40;;;20.50;;
56824;SDS011;42705;50.326;18.772;2024-02-28T18:08:03;39.40;;;20.50;;
56824;SDS011;42705;50.326;18.772;2024-02-28T18:13:25;46.90;;;23.30;;
56824;SDS011;42705;50.326;18.772;2024-02-28T18:18:47;42.90;;;21.60;;
56824;SDS011;42705;50.326;18.772;2024-02-28T18:24:09;29.80;;;15.20;;
56824;SDS011;42705;50.326;18.772;2024-02-28T18:29:31;29.10;;;15.40;;
56824;SDS011;42705;50.326;18.772;2024-02-28T18:34:54;32.30;;;15.70;;
56824;SDS011;42705;50.326;18.772;2024-02-28T18:40:21;32.10;;;18.50;;
56824;SDS011;42705;50.326;18.772;2024-02-28T18:45:44;41.70;;;21.00;;
56824;SDS011;42705;50.326;18.772;2024-02-28T18:51:08;39.90;;;20.50;;
56824;SDS011;42705;50.326;18.772;2024-02-28T18:56:30;36.10;;;19.30;;
56824;SDS011;42705;50.326;18.772;2024-02-28T19:01:55;35.60;;;19.10;;
56824;SDS011;42705;50.326;18.772;2024-02-28T19:07:17;37.90;;;17.50;;
56824;SDS011;42705;50.326;18.772;2024-02-28T19:12:39;33.50;;;17.90;;
56824;SDS011;42705;50.326;18.772;2024-02-28T19:18:02;36.60;;;17.60;;
56824;SDS011;42705;50.326;18.772;2024-02-28T19:23:24;32.50;;;16.30;;
56824;SDS011;42705;50.326;18.772;2024-02-28T19:28:47;33.40;;;17.40;;
56824;SDS011;42705;50.326;18.772;2024-02-28T19:34:09;27.20;;;15.60;;
56824;SDS011;42705;50.326;18.772;2024-02-28T19:39:31;29.50;;;15.80;;
56824;SDS011;42705;50.326;18.772;2024-02-28T19:44:53;28.70;;;16.00;;
56824;SDS011;42705;50.326;18.772;2024-02-28T19:50:15;27.40;;;16.20;;
56824;SDS011;42705;50.326;18.772;2024-02-28T19:55:37;28.10;;;15.40;;
56824;SDS011;42705;50.326;18.772;2024-02-28T20:00:59;23.30;;;13.90;;
56824;SDS011;42705;50.326;18.772;2024-02-28T20:06:21;22.40;;;13.60;;
56824;SDS011;42705;50.326;18.772;2024-02-28T20:11:43;26.30;;;15.30;;
56824;SDS011;42705;50.326;18.772;2024-02-28T20:17:06;24.80;;;14.60;;
56824;SDS011;42705;50.326;18.772;2024-02-28T20:22:31;21.70;;;11.40;;
56824;SDS011;42705;50.326;18.772;2024-02-28T20:27:53;24.40;;;13.00;;
56824;SDS011;42705;50.326;18.772;2024-02-28T20:33:16;21.00;;;12.20;;
56824;SDS011;42705;50.326;18.772;2024-02-28T20:38:42;20.10;;;12.10;;
56824;SDS011;42705;50.326;18.772;2024-02-28T20:44:04;18.90;;;11.70;;
56824;SDS011;42705;50.326;18.772;2024-02-28T20:49:26;19.20;;;11.60;;
56824;SDS011;42705;50.326;18.772;2024-02-28T20:54:48;20.70;;;12.60;;
56824;SDS011;42705;50.326;18.772;2024-02-28T21:00:10;23.20;;;12.80;;
56824;SDS011;42705;50.326;18.772;2024-02-28T21:10:55;18.30;;;10.80;;
56824;SDS011;42705;50.326;18.772;2024-02-28T21:16:22;14.10;;;9.40;;
56824;SDS011;42705;50.326;18.772;2024-02-28T21:21:46;12.80;;;7.60;;
56824;SDS011;42705;50.326;18.772;2024-02-28T21:27:08;11.60;;;7.70;;
56824;SDS011;42705;50.326;18.772;2024-02-28T21:32:30;14.50;;;9.30;;
56824;SDS011;42705;50.326;18.772;2024-02-28T21:37:52;12.10;;;8.60;;
56824;SDS011;42705;50.326;18.772;2024-02-28T21:43:14;14.00;;;8.50;;
56824;SDS011;42705;50.326;18.772;2024-02-28T21:48:36;15.40;;;9.90;;
56824;SDS011;42705;50.326;18.772;2024-02-28T21:53:58;17.20;;;11.50;;
56824;SDS011;42705;50.326;18.772;2024-02-28T21:59:20;16.30;;;9.80;;
56824;SDS011;42705;50.326;18.772;2024-02-28T22:04:42;15.20;;;10.40;;
56824;SDS011;42705;50.326;18.772;2024-02-28T22:10:04;20.50;;;11.50;;
56824;SDS011;42705;50.326;18.772;2024-02-28T22:15:27;21.00;;;12.20;;
56824;SDS011;42705;50.326;18.772;2024-02-28T22:20:49;20.40;;;12.60;;
56824;SDS011;42705;50.326;18.772;2024-02-28T22:26:11;25.60;;;13.10;;
56824;SDS011;42705;50.326;18.772;2024-02-28T22:31:33;19.90;;;12.00;;
56824;SDS011;42705;50.326;18.772;2024-02-28T22:36:55;25.40;;;13.10;;
56824;SDS011;42705;50.326;18.772;2024-02-28T22:42:17;22.60;;;13.00;;
56824;SDS011;42705;50.326;18.772;2024-02-28T22:47:39;28.20;;;14.00;;
56824;SDS011;42705;50.326;18.772;2024-02-28T22:53:01;23.40;;;13.90;;
56824;SDS011;42705;50.326;18.772;2024-02-28T22:58:22;24.40;;;13.70;;
56824;SDS011;42705;50.326;18.772;2024-02-28T23:03:45;27.50;;;15.50;;
56824;SDS011;42705;50.326;18.772;2024-02-28T23:09:08;27.40;;;15.50;;
56824;SDS011;42705;50.326;18.772;2024-02-28T23:14:30;30.60;;;15.60;;
56824;SDS011;42705;50.326;18.772;2024-02-28T23:19:53;29.10;;;15.20;;
56824;SDS011;42705;50.326;18.772;2024-02-28T23:25:16;32.40;;;16.70;;
56824;SDS011;42705;50.326;18.772;2024-02-28T23:30:38;31.50;;;16.10;;
56824;SDS011;42705;50.326;18.772;2024-02-28T23:36:00;35.70;;;17.90;;
56824;SDS011;42705;50.326;18.772;2024-02-28T23:41:22;30.60;;;16.00;;
56824;SDS011;42705;50.326;18.772;2024-02-28T23:46:44;31.60;;;15.30;;
56824;SDS011;42705;50.326;18.772;2024-02-28T23:52:07;35.20;;;17.50;;
56824;SDS011;42705;50.326;18.772;2024-02-28T23:57:29;32.00;;;17.40;;
